| time (UTC) | temp C | wind direction | speed KPH | gust KPH | rain 1hr cm | rain 24hr cm | rain mn cm | humidity % | barometer mb |
| 20260510164649 | 21 | 169 | 1.6 | 1.6 | 0.00 | 0.00 | 0.00 | 74 | 1013.0 |
| 20260510164147 | 21 | 133 | 0.0 | 1.6 | 0.00 | 0.00 | 0.00 | 73 | 1012.8 |
| 20260510163641 | 21 | 189 | 1.6 | 3.2 | 0.00 | 0.00 | 0.00 | 72 | 1013.0 |
| 20260510163138 | 20 | 196 | 1.6 | 3.2 | 0.00 | 0.00 | 0.00 | 77 | 1013.1 |
| 20260510162637 | 20 | 191 | 3.2 | 3.2 | 0.00 | 0.00 | 0.00 | 77 | 1013.1 |
| 20260510162134 | 20 | 161 | 1.6 | 1.6 | 0.00 | 0.00 | 0.00 | 77 | 1013.3 |
| 20260510161630 | 20 | 148 | 0.0 | 1.6 | 0.00 | 0.00 | 0.00 | 77 | 1013.3 |
| 20260510161127 | 20 | 158 | 4.8 | 9.7 | 0.00 | 0.00 | 0.00 | 77 | 1013.5 |
| 20260510160624 | 20 | 107 | 4.8 | 4.8 | 0.00 | 0.00 | 0.00 | 78 | 1013.2 |
| 20260510160124 | 20 | 179 | 0.0 | 1.6 | 0.00 | 0.00 | 0.00 | 77 | 1013.5 |
| 20260510155621 | 20 | 4 | 3.2 | 4.8 | 0.00 | 0.00 | 0.00 | 77 | 1013.5 |
| 20260510155117 | 19 | 109 | 0.0 | 0.0 | 0.00 | 0.00 | 0.00 | 78 | 1013.4 |
| 20260510154612 | 18 | 114 | 1.6 | 3.2 | 0.00 | 0.00 | 0.00 | 81 | 1013.8 |
| 20260510154108 | 18 | 196 | 1.6 | 3.2 | 0.00 | 0.00 | 0.00 | 80 | 1013.4 |
| 20260510153603 | 18 | 137 | 1.6 | 8.0 | 0.00 | 0.00 | 0.00 | 82 | 1013.6 |
| 20260510153100 | 17 | 141 | 3.2 | 4.8 | 0.00 | 0.00 | 0.00 | 83 | 1013.6 |
| 20260510152557 | 17 | 113 | 0.0 | 1.6 | 0.00 | 0.00 | 0.00 | 82 | 1013.6 |
| 20260510152053 | 18 | 294 | 1.6 | 1.6 | 0.00 | 0.00 | 0.00 | 81 | 1013.7 |
| 20260510151550 | 17 | 45 | 1.6 | 1.6 | 0.00 | 0.00 | 0.00 | 81 | 1013.5 |
| 20260510151048 | 17 | 162 | 0.0 | 1.6 | 0.00 | 0.00 | 0.00 | 85 | 1013.6 |
| 20260510150548 | 16 | 213 | 4.8 | 4.8 | 0.00 | 0.00 | 0.00 | 87 | 1013.5 |
| 20260510150044 | 16 | 188 | 4.8 | 4.8 | 0.00 | 0.00 | 0.00 | 86 | 1013.5 |
| 20260510145541 | 16 | 143 | 3.2 | 3.2 | 0.00 | 0.00 | 0.00 | 87 | 1013.8 |
| 20260510145037 | 16 | 160 | 0.0 | 1.6 | 0.00 | 0.00 | 0.00 | 89 | 1013.7 |
| 20260510144534 | 15 | 198 | 4.8 | 8.0 | 0.00 | 0.00 | 0.00 | 90 | 1013.8 |
| 20260510144030 | 15 | 187 | 1.6 | 3.2 | 0.00 | 0.00 | 0.00 | 92 | 1013.8 |
| 20260510143525 | 14 | 170 | 1.6 | 1.6 | 0.00 | 0.00 | 0.00 | 93 | 1013.6 |
| 20260510143022 | 15 | 114 | 3.2 | 4.8 | 0.00 | 0.00 | 0.00 | 94 | 1013.6 |
| 20260510142519 | 13 | 188 | 3.2 | 3.2 | 0.00 | 0.00 | 0.00 | 97 | 1013.6 |
| 20260510142015 | 13 | 144 | 1.6 | 3.2 | 0.00 | 0.00 | 0.00 | 98 | 1013.7 |
| 20260510141512 | 13 | 192 | 0.0 | 0.0 | 0.00 | 0.00 | 0.00 | 99 | 1013.7 |
| 20260510141009 | 13 | 130 | 1.6 | 1.6 | 0.00 | 0.00 | 0.00 | 99 | 1013.8 |
| 20260510140506 | 13 | 177 | 0.0 | 0.0 | 0.00 | 0.00 | 0.00 | 99 | 1013.6 |
| 20260510140000 | 12 | 139 | 0.0 | 1.6 | 0.00 | 0.00 | 0.00 | 99 | 1013.6 |
| 20260510135455 | 12 | 172 | 1.6 | 3.2 | 0.00 | 0.00 | 0.00 | 99 | 1013.5 |
| 20260510134953 | 12 | 225 | 3.2 | 3.2 | 0.00 | 0.00 | 0.00 | 99 | 1013.4 |
| 20260510134450 | 13 | 164 | 0.0 | 1.6 | 0.00 | 0.00 | 0.00 | 99 | 1013.5 |
| 20260510133946 | 12 | 174 | 6.4 | 8.0 | 0.00 | 0.00 | 0.00 | 99 | 1013.6 |
| 20260510133442 | 12 | 146 | 3.2 | 3.2 | 0.00 | 0.00 | 0.00 | 99 | 1013.6 |
| 20260510132938 | 12 | 158 | 1.6 | 1.6 | 0.00 | 0.00 | 0.00 | 99 | 1013.5 |
| 20260510132435 | 12 | 159 | 0.0 | 0.0 | 0.00 | 0.00 | 0.00 | 99 | 1013.5 |
| 20260510131932 | 12 | 208 | 0.0 | 0.0 | 0.00 | 0.00 | 0.00 | 99 | 1013.7 |
| 20260510131430 | 12 | 182 | 0.0 | 1.6 | 0.00 | 0.00 | 0.00 | 99 | 1013.7 |
| 20260510130926 | 11 | 230 | 3.2 | 3.2 | 0.00 | 0.00 | 0.00 | 99 | 1013.5 |
| 20260510130423 | 11 | 123 | 0.0 | 0.0 | 0.00 | 0.00 | 0.00 | 99 | 1013.5 |
| 20260510125920 | 11 | 242 | 1.6 | 3.2 | 0.00 | 0.00 | 0.00 | 99 | 1013.6 |
| 20260510125416 | 12 | 182 | 0.0 | 0.0 | 0.00 | 0.00 | 0.00 | 99 | 1013.2 |
| 20260510124914 | 11 | 135 | 0.0 | 0.0 | 0.00 | 0.00 | 0.00 | 99 | 1013.1 |
| 20260510124410 | 11 | 113 | 0.0 | 0.0 | 0.00 | 0.00 | 0.00 | 99 | 1013.0 |
| 20260510123906 | 11 | 149 | 0.0 | 0.0 | 0.00 | 0.00 | 0.00 | 99 | 1013.2 |
| 20260510123402 | 11 | 120 | 0.0 | 0.0 | 0.00 | 0.00 | 0.00 | 99 | 1013.1 |
| 20260510122858 | 11 | 125 | 0.0 | 0.0 | 0.00 | 0.00 | 0.00 | 99 | 1012.9 |
| 20260510122354 | 11 | 122 | 0.0 | 0.0 | 0.00 | 0.00 | 0.00 | 99 | 1013.0 |
| 20260510121850 | 11 | 215 | 0.0 | 0.0 | 0.00 | 0.00 | 0.00 | 99 | 1012.9 |
| 20260510121348 | 11 | 147 | 0.0 | 0.0 | 0.00 | 0.00 | 0.00 | 99 | 1013.0 |
| 20260510120845 | 11 | 348 | 0.0 | 0.0 | 0.00 | 0.00 | 0.00 | 99 | 1012.9 |
| 20260510120343 | 11 | 231 | 0.0 | 0.0 | 0.00 | 0.00 | 0.00 | 99 | 1012.8 |
| 20260510115837 | 11 | 147 | 0.0 | 0.0 | 0.00 | 0.00 | 0.00 | 99 | 1012.8 |
| 20260510115335 | 10 | 174 | 0.0 | 0.0 | 0.00 | 0.00 | 0.00 | 99 | 1012.6 |
| 20260510114831 | 10 | 140 | 0.0 | 0.0 | 0.00 | 0.00 | 0.00 | 99 | 1012.7 |
| 20260510114328 | 10 | 122 | 0.0 | 0.0 | 0.00 | 0.00 | 0.00 | 99 | 1012.7 |
| 20260510113828 | 10 | 45 | 0.0 | 0.0 | 0.00 | 0.00 | 0.00 | 99 | 1012.8 |
| 20260510113325 | 10 | 209 | 0.0 | 0.0 | 0.00 | 0.00 | 0.00 | 99 | 1012.7 |
| 20260510112822 | 10 | 150 | 0.0 | 0.0 | 0.00 | 0.00 | 0.00 | 99 | 1012.5 |
| 20260510112319 | 10 | 350 | 0.0 | 0.0 | 0.00 | 0.00 | 0.00 | 99 | 1012.5 |
| 20260510111815 | 10 | 349 | 0.0 | 0.0 | 0.00 | 0.00 | 0.00 | 99 | 1012.5 |
| 20260510111311 | 10 | 144 | 0.0 | 0.0 | 0.00 | 0.00 | 0.00 | 99 | 1012.5 |
| 20260510110811 | 10 | 169 | 0.0 | 0.0 | 0.00 | 0.00 | 0.00 | 99 | 1012.4 |
| 20260510110309 | 10 | 93 | 0.0 | 0.0 | 0.00 | 0.00 | 0.00 | 99 | 1012.4 |
| 20260510105804 | 10 | 94 | 0.0 | 0.0 | 0.00 | 0.00 | 0.00 | 99 | 1012.3 |
| 20260510105259 | 10 | 132 | 0.0 | 0.0 | 0.00 | 0.00 | 0.00 | 99 | 1012.3 |
| 20260510104756 | 10 | 171 | 0.0 | 0.0 | 0.00 | 0.00 | 0.00 | 99 | 1012.2 |
| 20260510104253 | 10 | 183 | 0.0 | 0.0 | 0.00 | 0.00 | 0.00 | 99 | 1012.0 |
| 20260510103749 | 10 | 169 | 0.0 | 0.0 | 0.00 | 0.00 | 0.00 | 99 | 1012.0 |
| 20260510103246 | 10 | 168 | 0.0 | 0.0 | 0.00 | 0.00 | 0.00 | 99 | 1012.1 |
| 20260510102746 | 10 | 168 | 0.0 | 0.0 | 0.00 | 0.00 | 0.00 | 99 | 1012.2 |
| 20260510102242 | 10 | 167 | 0.0 | 0.0 | 0.00 | 0.00 | 0.00 | 99 | 1012.1 |
| 20260510101740 | 10 | 151 | 0.0 | 0.0 | 0.00 | 0.00 | 0.00 | 99 | 1011.9 |
| 20260510101238 | 10 | 151 | 0.0 | 0.0 | 0.00 | 0.00 | 0.00 | 99 | 1011.9 |
| 20260510100733 | 10 | 152 | 0.0 | 0.0 | 0.00 | 0.00 | 0.00 | 99 | 1012.0 |
| 20260510100232 | 10 | 152 | 0.0 | 0.0 | 0.00 | 0.00 | 0.00 | 99 | 1012.0 |
| 20260510095727 | 10 | 151 | 0.0 | 0.0 | 0.00 | 0.00 | 0.00 | 99 | 1012.3 |
| 20260510095222 | 10 | 151 | 0.0 | 0.0 | 0.00 | 0.00 | 0.00 | 99 | 1012.2 |
| 20260510094721 | 10 | 151 | 0.0 | 0.0 | 0.00 | 0.00 | 0.00 | 99 | 1012.2 |
| 20260510094217 | 10 | 151 | 0.0 | 0.0 | 0.00 | 0.00 | 0.00 | 99 | 1012.3 |
| 20260510093713 | 10 | 173 | 0.0 | 0.0 | 0.00 | 0.00 | 0.00 | 99 | 1012.3 |
| 20260510093210 | 10 | 185 | 0.0 | 0.0 | 0.00 | 0.00 | 0.00 | 99 | 1012.2 |
| 20260510092707 | 10 | 185 | 0.0 | 0.0 | 0.00 | 0.00 | 0.00 | 99 | 1012.1 |
| 20260510092202 | 10 | 160 | 0.0 | 0.0 | 0.00 | 0.00 | 0.00 | 99 | 1011.8 |
| 20260510091658 | 10 | 160 | 0.0 | 0.0 | 0.00 | 0.00 | 0.00 | 99 | 1012.3 |
| 20260510091154 | 10 | 148 | 0.0 | 0.0 | 0.00 | 0.00 | 0.00 | 99 | 1012.2 |
| 20260510090652 | 10 | 133 | 0.0 | 0.0 | 0.00 | 0.00 | 0.00 | 99 | 1012.4 |
| 20260510090148 | 10 | 133 | 0.0 | 0.0 | 0.00 | 0.00 | 0.00 | 99 | 1012.3 |
| 20260510085643 | 10 | 133 | 0.0 | 0.0 | 0.00 | 0.00 | 0.00 | 99 | 1012.2 |
| 20260510085138 | 10 | 125 | 0.0 | 0.0 | 0.00 | 0.00 | 0.00 | 99 | 1012.6 |
| 20260510084635 | 10 | 125 | 0.0 | 0.0 | 0.00 | 0.00 | 0.00 | 99 | 1012.5 |
| 20260510084132 | 10 | 117 | 0.0 | 0.0 | 0.00 | 0.00 | 0.00 | 99 | 1012.5 |
| 20260510083628 | 10 | 108 | 0.0 | 0.0 | 0.00 | 0.00 | 0.00 | 99 | 1012.4 |
| 20260510083125 | 10 | 92 | 0.0 | 0.0 | 0.00 | 0.00 | 0.00 | 99 | 1012.4 |
| 20260510082622 | 10 | 61 | 0.0 | 0.0 | 0.00 | 0.00 | 0.00 | 99 | 1012.5 |
| 20260510082118 | 10 | 53 | 1.6 | 3.2 | 0.00 | 0.00 | 0.00 | 99 | 1012.5 |
| 20260510081617 | 10 | 68 | 0.0 | 0.0 | 0.00 | 0.00 | 0.00 | 99 | 1012.5 |
| 20260510081113 | 10 | 120 | 0.0 | 0.0 | 0.00 | 0.00 | 0.00 | 99 | 1012.1 |
| 20260510080608 | 10 | 332 | 0.0 | 1.6 | 0.00 | 0.00 | 0.00 | 99 | 1012.2 |
| 20260510080105 | 10 | 79 | 0.0 | 0.0 | 0.00 | 0.00 | 0.00 | 99 | 1012.3 |
| 20260510075602 | 10 | 60 | 0.0 | 0.0 | 0.00 | 0.00 | 0.00 | 99 | 1011.9 |
| 20260510075058 | 10 | 151 | 0.0 | 0.0 | 0.00 | 0.00 | 0.00 | 99 | 1011.5 |
| 20260510074556 | 10 | 84 | 0.0 | 0.0 | 0.00 | 0.00 | 0.00 | 99 | 1011.5 |
| 20260510074051 | 10 | 73 | 0.0 | 0.0 | 0.00 | 0.00 | 0.00 | 99 | 1011.4 |
| 20260510073547 | 10 | 110 | 0.0 | 0.0 | 0.00 | 0.00 | 0.00 | 99 | 1011.6 |
| 20260510073045 | 10 | 109 | 0.0 | 0.0 | 0.00 | 0.00 | 0.00 | 99 | 1011.7 |
| 20260510072541 | 10 | 108 | 0.0 | 0.0 | 0.00 | 0.00 | 0.00 | 99 | 1011.6 |
| 20260510072037 | 10 | 137 | 0.0 | 0.0 | 0.00 | 0.00 | 0.00 | 99 | 1011.5 |
| 20260510071533 | 10 | 134 | 0.0 | 0.0 | 0.00 | 0.00 | 0.00 | 99 | 1011.6 |
| 20260510071032 | 10 | 134 | 0.0 | 0.0 | 0.00 | 0.00 | 0.00 | 99 | 1011.4 |
| 20260510070528 | 10 | 117 | 0.0 | 0.0 | 0.00 | 0.00 | 0.00 | 99 | 1011.4 |
| 20260510070025 | 10 | 123 | 0.0 | 0.0 | 0.00 | 0.00 | 0.00 | 99 | 1011.5 |
| 20260510065521 | 10 | 123 | 0.0 | 0.0 | 0.00 | 0.00 | 0.00 | 99 | 1011.7 |
| 20260510065017 | 10 | 119 | 0.0 | 0.0 | 0.00 | 0.00 | 0.00 | 99 | 1011.9 |
| 20260510064514 | 10 | 118 | 0.0 | 0.0 | 0.00 | 0.00 | 0.00 | 99 | 1011.7 |
| 20260510064011 | 10 | 102 | 0.0 | 0.0 | 0.00 | 0.00 | 0.00 | 99 | 1012.0 |
| 20260510063508 | 10 | 38 | 0.0 | 0.0 | 0.00 | 0.00 | 0.00 | 99 | 1011.7 |
| 20260510063005 | 10 | 129 | 0.0 | 0.0 | 0.00 | 0.00 | 0.00 | 99 | 1011.9 |
| 20260510062500 | 10 | 130 | 0.0 | 0.0 | 0.00 | 0.00 | 0.00 | 99 | 1011.7 |
| 20260510061955 | 10 | 149 | 0.0 | 0.0 | 0.00 | 0.00 | 0.00 | 99 | 1011.7 |
| 20260510061453 | 10 | 149 | 0.0 | 0.0 | 0.00 | 0.00 | 0.00 | 99 | 1011.5 |
| 20260510060949 | 10 | 143 | 0.0 | 0.0 | 0.00 | 0.00 | 0.00 | 99 | 1011.5 |
| 20260510060446 | 10 | 143 | 0.0 | 0.0 | 0.00 | 0.00 | 0.00 | 99 | 1011.5 |
| 20260510055942 | 10 | 143 | 0.0 | 0.0 | 0.00 | 0.00 | 0.00 | 99 | 1011.3 |
| 20260510055438 | 10 | 142 | 0.0 | 0.0 | 0.00 | 0.00 | 0.00 | 99 | 1011.3 |
| 20260510054936 | 10 | 141 | 0.0 | 0.0 | 0.00 | 0.00 | 0.00 | 99 | 1011.4 |
| 20260510054431 | 10 | 141 | 0.0 | 0.0 | 0.00 | 0.00 | 0.00 | 99 | 1011.6 |
| 20260510053926 | 10 | 136 | 0.0 | 0.0 | 0.00 | 0.00 | 0.00 | 99 | 1011.6 |
| 20260510053422 | 10 | 128 | 0.0 | 0.0 | 0.00 | 0.00 | 0.00 | 99 | 1011.4 |
| 20260510052919 | 10 | 127 | 0.0 | 0.0 | 0.00 | 0.00 | 0.00 | 99 | 1011.4 |
| 20260510052414 | 10 | 127 | 0.0 | 0.0 | 0.00 | 0.00 | 0.00 | 99 | 1011.4 |
| 20260510051911 | 10 | 113 | 0.0 | 0.0 | 0.00 | 0.00 | 0.00 | 99 | 1011.6 |
| 20260510051408 | 10 | 113 | 0.0 | 0.0 | 0.00 | 0.00 | 0.00 | 99 | 1011.4 |
| 20260510050904 | 10 | 114 | 0.0 | 0.0 | 0.00 | 0.00 | 0.00 | 99 | 1011.6 |
| 20260510050401 | 10 | 114 | 0.0 | 0.0 | 0.00 | 0.00 | 0.00 | 99 | 1011.7 |
| 20260510045858 | 10 | 114 | 0.0 | 0.0 | 0.00 | 0.00 | 0.00 | 99 | 1011.5 |
| 20260510045355 | 9 | 113 | 0.0 | 0.0 | 0.00 | 0.00 | 0.00 | 99 | 1011.7 |
| 20260510044852 | 9 | 115 | 0.0 | 0.0 | 0.00 | 0.00 | 0.00 | 99 | 1011.7 |
| 20260510044348 | 9 | 115 | 0.0 | 0.0 | 0.00 | 0.00 | 0.00 | 99 | 1011.6 |
| 20260510043845 | 9 | 115 | 0.0 | 0.0 | 0.00 | 0.00 | 0.00 | 99 | 1011.8 |
| 20260510043341 | 8 | 114 | 0.0 | 0.0 | 0.00 | 0.00 | 0.00 | 99 | 1011.6 |
| 20260510042839 | 9 | 114 | 0.0 | 0.0 | 0.00 | 0.00 | 0.00 | 99 | 1011.7 |
| 20260510042335 | 9 | 114 | 0.0 | 0.0 | 0.00 | 0.00 | 0.00 | 99 | 1011.8 |
| 20260510041831 | 9 | 114 | 0.0 | 0.0 | 0.00 | 0.00 | 0.00 | 99 | 1011.9 |
| 20260510041328 | 8 | 114 | 0.0 | 0.0 | 0.00 | 0.00 | 0.00 | 99 | 1011.8 |
| 20260510040826 | 9 | 114 | 0.0 | 0.0 | 0.00 | 0.00 | 0.00 | 99 | 1011.7 |
| 20260510040322 | 9 | 113 | 0.0 | 0.0 | 0.00 | 0.00 | 0.00 | 99 | 1011.6 |
| 20260510035818 | 9 | 117 | 0.0 | 0.0 | 0.00 | 0.81 | 0.81 | 99 | 1011.6 |
| 20260510035314 | 9 | 117 | 0.0 | 0.0 | 0.00 | 0.81 | 0.81 | 99 | 1011.6 |
| 20260510034810 | 10 | 116 | 0.0 | 0.0 | 0.00 | 0.81 | 0.81 | 99 | 1011.5 |
| 20260510034308 | 10 | 116 | 0.0 | 0.0 | 0.00 | 0.81 | 0.81 | 99 | 1011.7 |
| 20260510033804 | 10 | 127 | 0.0 | 0.0 | 0.00 | 0.81 | 0.81 | 99 | 1011.6 |
| 20260510033301 | 10 | 130 | 0.0 | 0.0 | 0.00 | 0.81 | 0.81 | 99 | 1011.3 |
| 20260510032757 | 10 | 117 | 0.0 | 0.0 | 0.00 | 0.81 | 0.81 | 99 | 1011.3 |
| 20260510032254 | 10 | 119 | 0.0 | 0.0 | 0.00 | 0.81 | 0.81 | 99 | 1011.3 |
| 20260510031749 | 10 | 112 | 0.0 | 0.0 | 0.00 | 0.81 | 0.81 | 99 | 1011.4 |
| 20260510031245 | 10 | 131 | 0.0 | 0.0 | 0.00 | 0.81 | 0.81 | 99 | 1011.4 |
| 20260510030739 | 10 | 179 | 0.0 | 0.0 | 0.00 | 0.81 | 0.81 | 99 | 1011.2 |
| 20260510030237 | 9 | 173 | 0.0 | 0.0 | 0.00 | 0.81 | 0.81 | 99 | 1011.2 |
| 20260510025734 | 9 | 172 | 0.0 | 0.0 | 0.00 | 0.81 | 0.81 | 99 | 1011.3 |
| 20260510025232 | 9 | 172 | 0.0 | 0.0 | 0.00 | 0.81 | 0.81 | 99 | 1011.2 |
| 20260510024728 | 9 | 172 | 0.0 | 0.0 | 0.00 | 0.81 | 0.81 | 99 | 1011.4 |
| 20260510024225 | 9 | 172 | 0.0 | 0.0 | 0.00 | 0.81 | 0.81 | 99 | 1011.3 |
| 20260510023720 | 9 | 172 | 0.0 | 0.0 | 0.00 | 0.81 | 0.81 | 99 | 1011.2 |
| 20260510023217 | 9 | 177 | 0.0 | 0.0 | 0.00 | 0.81 | 0.81 | 99 | 1011.4 |
| 20260510022714 | 9 | 177 | 0.0 | 0.0 | 0.00 | 0.81 | 0.81 | 99 | 1011.2 |
| 20260510022208 | 9 | 201 | 0.0 | 0.0 | 0.00 | 0.81 | 0.81 | 99 | 1011.3 |
| 20260510021703 | 9 | 202 | 0.0 | 0.0 | 0.00 | 0.81 | 0.81 | 99 | 1011.3 |
| 20260510021201 | 9 | 201 | 0.0 | 0.0 | 0.00 | 0.81 | 0.81 | 99 | 1011.3 |
| 20260510020656 | 10 | 202 | 0.0 | 0.0 | 0.00 | 0.81 | 0.81 | 99 | 1011.3 |
| 20260510020151 | 10 | 202 | 0.0 | 0.0 | 0.00 | 0.81 | 0.81 | 99 | 1011.4 |
| 20260510015647 | 10 | 202 | 0.0 | 0.0 | 0.00 | 0.81 | 0.81 | 99 | 1011.6 |
| 20260510015144 | 10 | 201 | 0.0 | 0.0 | 0.00 | 0.81 | 0.81 | 99 | 1011.4 |
| 20260510014644 | 10 | 201 | 0.0 | 0.0 | 0.00 | 0.81 | 0.81 | 99 | 1011.3 |
| 20260510014142 | 10 | 201 | 0.0 | 0.0 | 0.00 | 0.81 | 0.81 | 99 | 1011.4 |
| 20260510013637 | 10 | 203 | 0.0 | 0.0 | 0.00 | 0.81 | 0.81 | 99 | 1011.3 |
| 20260510013132 | 10 | 206 | 0.0 | 0.0 | 0.00 | 0.81 | 0.81 | 99 | 1011.4 |
| 20260510012633 | 10 | 207 | 0.0 | 0.0 | 0.00 | 0.81 | 0.81 | 99 | 1011.2 |
| 20260510012129 | 10 | 207 | 0.0 | 0.0 | 0.00 | 0.81 | 0.81 | 99 | 1011.3 |
| 20260510011629 | 10 | 206 | 0.0 | 0.0 | 0.00 | 0.81 | 0.81 | 99 | 1011.4 |
| 20260510011125 | 10 | 206 | 0.0 | 0.0 | 0.00 | 0.81 | 0.81 | 99 | 1011.3 |
| 20260510010621 | 10 | 206 | 0.0 | 0.0 | 0.00 | 0.81 | 0.81 | 99 | 1011.2 |
| 20260510010118 | 10 | 205 | 0.0 | 0.0 | 0.00 | 0.81 | 0.81 | 99 | 1011.4 |
| 20260510005613 | 10 | 205 | 0.0 | 0.0 | 0.00 | 0.81 | 0.81 | 99 | 1011.1 |
| 20260510005111 | 10 | 205 | 0.0 | 0.0 | 0.00 | 0.81 | 0.81 | 99 | 1010.8 |
| 20260510004609 | 10 | 205 | 0.0 | 0.0 | 0.00 | 0.81 | 0.81 | 99 | 1010.8 |
| 20260510004107 | 11 | 206 | 0.0 | 0.0 | 0.00 | 0.81 | 0.81 | 99 | 1010.9 |
| 20260510003604 | 11 | 206 | 0.0 | 0.0 | 0.00 | 0.81 | 0.81 | 99 | 1010.7 |
| 20260510003059 | 11 | 206 | 0.0 | 0.0 | 0.00 | 0.81 | 0.81 | 99 | 1010.6 |
| 20260510002554 | 11 | 207 | 0.0 | 0.0 | 0.00 | 0.81 | 0.81 | 99 | 1010.5 |
| 20260510002051 | 11 | 208 | 0.0 | 0.0 | 0.00 | 0.81 | 0.81 | 99 | 1010.7 |
| 20260510001549 | 11 | 208 | 0.0 | 0.0 | 0.00 | 0.81 | 0.81 | 99 | 1010.6 |
| 20260510001048 | 11 | 208 | 0.0 | 0.0 | 0.00 | 0.81 | 0.81 | 99 | 1010.6 |
| 20260510000542 | 11 | 208 | 0.0 | 0.0 | 0.00 | 0.81 | 0.81 | 99 | 1010.8 |
| 20260510000039 | 11 | 208 | 0.0 | 0.0 | 0.00 | 0.81 | 0.81 | 99 | 1010.7 |
| 20260509235536 | 11 | 207 | 0.0 | 0.0 | 0.00 | 0.81 | 0.81 | 99 | 1010.8 |
| 20260509235033 | 11 | 202 | 0.0 | 0.0 | 0.00 | 0.81 | 0.81 | 99 | 1010.8 |
| 20260509234529 | 11 | 203 | 0.0 | 0.0 | 0.00 | 0.81 | 0.81 | 99 | 1010.8 |
| 20260509234027 | 12 | 203 | 0.0 | 0.0 | 0.00 | 0.81 | 0.81 | 99 | 1010.8 |
| 20260509233524 | 12 | 202 | 0.0 | 0.0 | 0.00 | 0.81 | 0.81 | 99 | 1010.5 |
| 20260509233021 | 12 | 211 | 0.0 | 0.0 | 0.00 | 0.81 | 0.81 | 99 | 1010.6 |
| 20260509232518 | 12 | 158 | 0.0 | 0.0 | 0.00 | 0.81 | 0.81 | 99 | 1010.6 |
| 20260509232014 | 12 | 151 | 0.0 | 1.6 | 0.00 | 0.81 | 0.81 | 99 | 1010.5 |
| 20260509231511 | 12 | 119 | 0.0 | 0.0 | 0.00 | 0.81 | 0.81 | 99 | 1010.4 |
| 20260509231009 | 12 | 179 | 0.0 | 0.0 | 0.00 | 0.81 | 0.81 | 99 | 1010.5 |
| 20260509230505 | 12 | 177 | 0.0 | 1.6 | 0.00 | 0.81 | 0.81 | 99 | 1010.5 |
| 20260509230002 | 12 | 206 | 3.2 | 3.2 | 0.00 | 0.81 | 0.81 | 99 | 1010.5 |
| 20260509225458 | 12 | 210 | 3.2 | 3.2 | 0.00 | 0.81 | 0.81 | 99 | 1010.4 |
| 20260509224953 | 12 | 160 | 1.6 | 1.6 | 0.00 | 0.81 | 0.81 | 99 | 1010.5 |
| 20260509224449 | 12 | 159 | 0.0 | 1.6 | 0.00 | 0.81 | 0.81 | 99 | 1010.6 |
| 20260509223946 | 12 | 197 | 1.6 | 1.6 | 0.00 | 0.81 | 0.81 | 99 | 1010.7 |
| 20260509223443 | 12 | 196 | 0.0 | 1.6 | 0.00 | 0.81 | 0.81 | 99 | 1010.7 |
| 20260509222940 | 12 | 195 | 0.0 | 0.0 | 0.00 | 0.81 | 0.81 | 99 | 1011.0 |
| 20260509222435 | 12 | 182 | 0.0 | 0.0 | 0.00 | 0.81 | 0.81 | 99 | 1010.8 |
| 20260509221931 | 12 | 186 | 0.0 | 0.0 | 0.00 | 0.81 | 0.81 | 99 | 1010.8 |
| 20260509221429 | 12 | 153 | 0.0 | 0.0 | 0.00 | 0.81 | 0.81 | 99 | 1010.9 |
| 20260509220924 | 12 | 208 | 1.6 | 1.6 | 0.00 | 0.81 | 0.81 | 99 | 1010.8 |
| 20260509220420 | 12 | 182 | 3.2 | 3.2 | 0.00 | 0.81 | 0.81 | 99 | 1010.9 |
| 20260509215917 | 12 | 172 | 0.0 | 0.0 | 0.00 | 0.81 | 0.81 | 99 | 1010.9 |
| 20260509215412 | 12 | 169 | 0.0 | 0.0 | 0.00 | 0.81 | 0.81 | 99 | 1010.8 |
| 20260509214910 | 12 | 161 | 0.0 | 0.0 | 0.18 | 0.81 | 0.81 | 99 | 1010.9 |
| 20260509214407 | 12 | 165 | 1.6 | 1.6 | 0.18 | 0.81 | 0.81 | 99 | 1010.8 |
| 20260509213904 | 12 | 202 | 0.0 | 1.6 | 0.30 | 0.81 | 0.81 | 99 | 1011.2 |
| 20260509213359 | 12 | 201 | 0.0 | 1.6 | 0.89 | 0.79 | 0.79 | 99 | 1011.2 |
| 20260509212857 | 12 | 147 | 1.6 | 1.6 | 1.27 | 0.76 | 0.76 | 99 | 1010.9 |
| 20260509212354 | 12 | 197 | 0.0 | 0.0 | 0.61 | 0.64 | 0.64 | 99 | 1011.3 |
| 20260509211850 | 12 | 57 | 0.0 | 0.0 | 0.43 | 0.56 | 0.56 | 99 | 1011.2 |
| 20260509211346 | 12 | 226 | 1.6 | 1.6 | 0.48 | 0.53 | 0.53 | 99 | 1010.9 |
| 20260509210843 | 12 | 128 | 0.0 | 0.0 | 0.61 | 0.51 | 0.51 | 99 | 1010.8 |
| 20260509210341 | 12 | 187 | 1.6 | 1.6 | 0.61 | 0.46 | 0.46 | 98 | 1010.8 |
| 20260509205840 | 12 | 136 | 0.0 | 0.0 | 0.30 | 0.41 | 0.41 | 98 | 1010.9 |
| 20260509205335 | 12 | 158 | 0.0 | 0.0 | 0.13 | 0.36 | 0.36 | 98 | 1011.2 |
| 20260509204832 | 12 | 182 | 0.0 | 0.0 | 0.48 | 0.36 | 0.36 | 97 | 1010.8 |
| 20260509204328 | 12 | 161 | 0.0 | 0.0 | 0.66 | 0.33 | 0.33 | 97 | 1010.8 |
| 20260509203824 | 12 | 101 | 0.0 | 0.0 | 0.48 | 0.30 | 0.30 | 96 | 1010.6 |
| 20260509203321 | 12 | 112 | 1.6 | 1.6 | 0.18 | 0.25 | 0.25 | 95 | 1011.0 |
| 20260509202817 | 12 | 89 | 0.0 | 0.0 | 0.00 | 0.23 | 0.23 | 95 | 1010.6 |
| 20260509202314 | 13 | 126 | 0.0 | 0.0 | 0.00 | 0.23 | 0.23 | 95 | 1010.9 |
| 20260509201813 | 13 | 124 | 0.0 | 1.6 | 0.00 | 0.23 | 0.23 | 95 | 1011.0 |
| 20260509201310 | 13 | 106 | 0.0 | 0.0 | 0.00 | 0.23 | 0.23 | 95 | 1011.0 |
| 20260509200806 | 12 | 72 | 0.0 | 0.0 | 0.13 | 0.23 | 0.23 | 95 | 1010.9 |
| 20260509200302 | 13 | 87 | 0.0 | 0.0 | 0.13 | 0.23 | 0.23 | 95 | 1011.2 |
| 20260509195758 | 13 | 114 | 0.0 | 1.6 | 0.18 | 0.20 | 0.20 | 94 | 1011.3 |
| 20260509195254 | 13 | 230 | 0.0 | 1.6 | 0.30 | 0.20 | 0.20 | 94 | 1011.5 |
| 20260509194748 | 13 | 116 | 0.0 | 0.0 | 0.30 | 0.18 | 0.18 | 94 | 1011.3 |
| 20260509194244 | 13 | 171 | 0.0 | 0.0 | 0.30 | 0.15 | 0.15 | 93 | 1011.3 |
| 20260509193741 | 13 | 97 | 0.0 | 0.0 | 0.30 | 0.15 | 0.15 | 92 | 1011.5 |
| 20260509193241 | 13 | 89 | 0.0 | 1.6 | 0.30 | 0.13 | 0.13 | 91 | 1012.0 |
| 20260509192737 | 13 | 234 | 3.2 | 3.2 | 0.18 | 0.10 | 0.10 | 91 | 1011.5 |
| 20260509192232 | 13 | 16 | 0.0 | 0.0 | 0.00 | 0.08 | 0.08 | 89 | 1011.4 |
| 20260509191728 | 13 | 162 | 0.0 | 0.0 | 0.13 | 0.08 | 0.08 | 88 | 1011.4 |
| 20260509191225 | 14 | 171 | 0.0 | 1.6 | 0.13 | 0.08 | 0.08 | 87 | 1011.4 |
| 20260509190721 | 14 | 270 | 1.6 | 1.6 | 0.00 | 0.05 | 0.05 | 86 | 1011.3 |
| 20260509190218 | 14 | 318 | 1.6 | 1.6 | 0.00 | 0.05 | 0.05 | 86 | 1011.3 |
| 20260509185716 | 14 | 278 | 1.6 | 1.6 | 0.00 | 0.05 | 0.05 | 86 | 1011.5 |
| 20260509185212 | 14 | 48 | 1.6 | 1.6 | 0.00 | 0.05 | 0.05 | 88 | 1011.2 |
| 20260509184709 | 14 | 231 | 0.0 | 0.0 | 0.00 | 0.05 | 0.05 | 87 | 1011.4 |
| 20260509184206 | 14 | 329 | 1.6 | 3.2 | 0.00 | 0.05 | 0.05 | 87 | 1011.3 |
| 20260509183702 | 14 | 73 | 0.0 | 0.0 | 0.00 | 0.05 | 0.05 | 88 | 1011.4 |
| 20260509183158 | 13 | 257 | 0.0 | 0.0 | 0.00 | 0.05 | 0.05 | 88 | 1011.1 |
| 20260509182653 | 13 | 343 | 1.6 | 1.6 | 0.00 | 0.05 | 0.05 | 88 | 1011.0 |
| 20260509182151 | 14 | 39 | 1.6 | 3.2 | 0.00 | 0.05 | 0.05 | 87 | 1011.4 |
| 20260509181649 | 14 | 103 | 1.6 | 3.2 | 0.18 | 0.05 | 0.05 | 86 | 1011.7 |
| 20260509181146 | 15 | 345 | 1.6 | 1.6 | 0.18 | 0.05 | 0.05 | 85 | 1011.6 |
| 20260509180643 | 15 | 328 | 3.2 | 4.8 | 0.18 | 0.05 | 0.05 | 84 | 1011.7 |
| 20260509180139 | 15 | 74 | 4.8 | 9.7 | 0.00 | 0.03 | 0.03 | 82 | 1011.8 |
| 20260509175635 | 15 | 52 | 3.2 | 3.2 | 0.00 | 0.03 | 0.03 | 82 | 1011.8 |
| 20260509175132 | 15 | 38 | 1.6 | 3.2 | 0.00 | 0.03 | 0.03 | 83 | 1011.5 |
| 20260509174628 | 15 | 206 | 1.6 | 1.6 | 0.13 | 0.03 | 0.03 | 84 | 1011.5 |
| 20260509174123 | 16 | 202 | 3.2 | 4.8 | 0.13 | 0.03 | 0.03 | 82 | 1011.5 |
| 20260509173619 | 16 | 312 | 3.2 | 4.8 | 0.00 | 0.00 | 0.00 | 79 | 1011.6 |
| 20260509173115 | 17 | 8 | 1.6 | 3.2 | 0.00 | 0.00 | 0.00 | 76 | 1011.3 |
| 20260509172612 | 18 | 276 | 3.2 | 8.0 | 0.00 | 0.00 | 0.00 | 71 | 1011.2 |
| 20260509172108 | 18 | 191 | 0.0 | 1.6 | 0.00 | 0.00 | 0.00 | 68 | 1011.4 |
| 20260509171604 | 18 | 190 | 3.2 | 3.2 | 0.00 | 0.00 | 0.00 | 66 | 1011.2 |
| 20260509171100 | 18 | 183 | 0.0 | 0.0 | 0.00 | 0.00 | 0.00 | 68 | 1011.2 |
| 20260509170557 | 19 | 273 | 1.6 | 1.6 | 0.00 | 0.00 | 0.00 | 66 | 1011.0 |
| 20260509170052 | 17 | 147 | 1.6 | 3.2 | 0.00 | 0.00 | 0.00 | 68 | 1011.1 |
| 20260509165551 | 17 | 125 | 3.2 | 3.2 | 0.00 | 0.00 | 0.00 | 69 | 1011.3 |
| 20260509165047 | 17 | 246 | 0.0 | 1.6 | 0.00 | 0.00 | 0.00 | 69 | 1011.3 |